Time;durP1;ratioP1;P1;durP2;ratioP2;P2;SDS_P1;SDS_P2;PMS_P1;PMS_P2;Temp;Humidity;BMP_temperature;BMP_pressure;BME280_temperature;BME280_humidity;BME280_pressure;Samples;Min_cycle;Max_cycle;Signal;HPM_P1;HPM_P2
2022/12/03 00:01:25;;;;;;;3.23;2.93;;;7.50;89.30;;;;;;4952747;28;20190;-69
2022/12/03 00:03:50;;;;;;;3.60;3.30;;;7.60;89.50;;;;;;4956060;28;20183;-70
2022/12/03 00:06:16;;;;;;;2.70;2.50;;;7.50;89.60;;;;;;4953070;28;20664;-70
2022/12/03 00:08:42;;;;;;;5.17;3.10;;;7.50;89.70;;;;;;4951368;28;20194;-72
2022/12/03 00:11:08;;;;;;;3.10;2.90;;;7.50;89.60;;;;;;4955392;28;20696;-71
2022/12/03 00:13:33;;;;;;;4.00;3.10;;;7.50;89.80;;;;;;4956449;28;20262;-70
2022/12/03 00:15:59;;;;;;;2.83;2.63;;;7.50;89.90;;;;;;4946697;28;20277;-70
2022/12/03 00:18:24;;;;;;;3.50;3.20;;;7.50;89.90;;;;;;4953193;28;20245;-72
2022/12/03 00:20:50;;;;;;;2.83;2.63;;;7.40;89.90;;;;;;4951562;28;20198;-70
2022/12/03 00:23:16;;;;;;;4.57;3.07;;;7.40;90.00;;;;;;4951329;28;20178;-69
2022/12/03 00:25:41;;;;;;;3.60;2.80;;;7.40;90.10;;;;;;4947828;28;21881;-71
2022/12/03 00:28:07;;;;;;;3.10;2.80;;;7.40;90.10;;;;;;4951467;28;20389;-70
2022/12/03 00:30:33;;;;;;;3.43;3.13;;;7.40;90.10;;;;;;4950037;28;20222;-70
2022/12/03 00:32:58;;;;;;;3.90;3.07;;;7.40;90.10;;;;;;4951306;28;20249;-71
2022/12/03 00:35:24;;;;;;;2.83;2.63;;;7.30;90.20;;;;;;4932395;28;20190;-70
2022/12/03 00:37:50;;;;;;;2.53;2.43;;;7.30;90.20;;;;;;4952356;28;20187;-70
2022/12/03 00:40:15;;;;;;;3.73;3.13;;;7.30;90.30;;;;;;4954788;28;20190;-71
2022/12/03 00:42:41;;;;;;;3.30;3.10;;;7.30;90.30;;;;;;4953888;28;20200;-71
2022/12/03 00:45:07;;;;;;;2.83;2.63;;;7.30;90.30;;;;;;4950073;28;20194;-71
2022/12/03 00:47:33;;;;;;;2.23;2.13;;;7.30;90.30;;;;;;4949752;28;20187;-71
2022/12/03 00:49:58;;;;;;;2.97;2.67;;;7.30;90.30;;;;;;4956588;28;20710;-71
2022/12/03 00:52:24;;;;;;;3.00;2.80;;;7.30;90.30;;;;;;4956962;28;20178;-71
2022/12/03 00:54:49;;;;;;;3.17;2.80;;;7.30;90.50;;;;;;4951195;28;20187;-70
2022/12/03 00:57:15;;;;;;;5.00;3.10;;;7.30;90.40;;;;;;4947008;28;20194;-71
2022/12/03 00:59:41;;;;;;;5.93;3.53;;;7.30;90.40;;;;;;4947927;28;20194;-71
2022/12/03 01:02:06;;;;;;;4.30;2.83;;;7.40;90.30;;;;;;4954708;28;20252;-70
2022/12/03 01:04:32;;;;;;;3.37;3.07;;;7.40;90.30;;;;;;4953192;28;20190;-70
2022/12/03 01:06:59;;;;;;;3.07;2.67;;;7.40;90.30;;;;;;4955385;28;20593;-71
2022/12/03 01:09:25;;;;;;;5.10;2.93;;;7.40;90.30;;;;;;4955452;28;20293;-71
2022/12/03 01:11:51;;;;;;;2.57;2.27;;;7.30;90.20;;;;;;4954880;28;20266;-71
2022/12/03 01:14:18;;;;;;;3.57;3.00;;;7.40;90.30;;;;;;4958397;28;20179;-71
2022/12/03 01:16:45;;;;;;;3.40;3.07;;;7.40;90.50;;;;;;4956704;28;20194;-70
2022/12/03 01:19:15;;;;;;;2.70;2.50;;;7.40;90.40;;;;;;4953215;28;20178;-70
2022/12/03 01:21:42;;;;;;;4.10;3.43;;;7.40;90.30;;;;;;4956695;28;20193;-71
2022/12/03 01:24:09;;;;;;;3.63;3.17;;;7.40;90.30;;;;;;4953807;28;20261;-70
2022/12/03 01:26:34;;;;;;;4.93;2.63;;;7.40;90.30;;;;;;4951743;28;20222;-73
2022/12/03 01:29:00;;;;;;;3.63;2.93;;;7.40;90.20;;;;;;4950345;28;20235;-71
2022/12/03 01:34:10;;;;;;;4.23;2.97;;;7.40;90.30;;;;;;4948781;28;20190;-70
2022/12/03 01:36:35;;;;;;;4.33;3.03;;;7.40;90.40;;;;;;4956099;28;20191;-71
2022/12/03 01:39:02;;;;;;;3.93;3.13;;;7.40;90.40;;;;;;4955083;28;20623;-71
2022/12/03 01:41:29;;;;;;;3.23;2.93;;;7.40;90.40;;;;;;4953211;28;20187;-69
2022/12/03 01:43:56;;;;;;;3.07;2.90;;;7.40;90.40;;;;;;4951585;28;20190;-70
2022/12/03 01:46:26;;;;;;;3.80;3.50;;;7.40;90.40;;;;;;4953136;28;20193;-70
2022/12/03 01:48:54;;;;;;;4.50;3.30;;;7.40;90.40;;;;;;4952895;28;20182;-71
2022/12/03 01:51:20;;;;;;;4.37;2.70;;;7.30;90.50;;;;;;4951413;28;20277;-69
2022/12/03 01:53:46;;;;;;;3.27;2.93;;;7.30;90.70;;;;;;4951889;28;20624;-70
2022/12/03 01:56:14;;;;;;;3.67;2.93;;;7.40;90.60;;;;;;4953581;28;20175;-70
2022/12/03 01:58:41;;;;;;;4.07;3.43;;;7.30;90.70;;;;;;4951034;28;20187;-71
2022/12/03 02:01:12;;;;;;;3.97;2.83;;;7.40;90.60;;;;;;4947721;28;20193;-70
2022/12/03 02:03:38;;;;;;;3.87;3.47;;;7.30;90.50;;;;;;4950551;28;20206;-71
2022/12/03 02:06:16;;;;;;;4.83;3.43;;;7.30;90.70;;;;;;4950121;28;20978;-70
2022/12/03 02:08:43;;;;;;;3.57;3.27;;;7.30;90.60;;;;;;4954969;28;20217;-71
2022/12/03 02:11:24;;;;;;;5.23;3.83;;;7.30;90.70;;;;;;4952824;28;20814;-71
2022/12/03 02:13:54;;;;;;;3.20;2.97;;;7.30;90.70;;;;;;4946860;28;20183;-71
2022/12/03 02:16:20;;;;;;;3.97;3.07;;;7.30;90.70;;;;;;4952192;28;20901;-70
2022/12/03 02:18:46;;;;;;;2.60;2.40;;;7.30;90.90;;;;;;4949925;28;20191;-70
2022/12/03 02:21:31;;;;;;;3.20;3.00;;;7.30;90.90;;;;;;4953513;28;20190;-70
2022/12/03 02:24:10;;;;;;;4.50;3.03;;;7.30;90.80;;;;;;4951952;28;20568;-71
2022/12/03 02:26:35;;;;;;;3.80;3.27;;;7.30;90.70;;;;;;4949043;28;20583;-72
2022/12/03 02:29:01;;;;;;;3.40;3.07;;;7.30;90.90;;;;;;4952223;28;20183;-70
2022/12/03 02:31:27;;;;;;;4.20;3.47;;;7.40;90.80;;;;;;4946380;28;20190;-70
2022/12/03 02:33:53;;;;;;;3.97;3.30;;;7.40;90.70;;;;;;4954552;28;20186;-70
2022/12/03 02:36:19;;;;;;;3.40;3.10;;;7.40;90.70;;;;;;4950703;28;20581;-70
2022/12/03 02:38:47;;;;;;;3.50;2.80;;;7.40;90.60;;;;;;4949814;28;20295;-71
2022/12/03 02:42:33;;;;;;;2.93;2.67;;;7.40;90.60;;;;;;4952551;28;20205;-72
2022/12/03 02:44:03;;;;;;;2.80;2.60;;;7.40;90.50;;;;;;4955579;28;20269;-70
2022/12/03 02:46:29;;;;;;;5.10;3.17;;;7.30;90.50;;;;;;4953552;28;20352;-71
2022/12/03 02:48:55;;;;;;;5.83;3.67;;;7.40;90.70;;;;;;4954046;28;20211;-69
2022/12/03 02:51:21;;;;;;;3.33;3.03;;;7.40;90.70;;;;;;4952083;28;20222;-71
2022/12/03 02:53:50;;;;;;;4.10;3.70;;;7.40;90.70;;;;;;4950989;28;20246;-70
2022/12/03 02:56:21;;;;;;;7.13;3.70;;;7.30;90.70;;;;;;4943317;28;20194;-72
2022/12/03 02:58:50;;;;;;;2.83;2.63;;;7.30;90.40;;;;;;4945612;28;20193;-70
2022/12/03 03:01:16;;;;;;;3.87;3.50;;;7.30;90.80;;;;;;4948688;28;20187;-71
2022/12/03 03:03:44;;;;;;;5.67;3.90;;;7.30;90.60;;;;;;4950453;28;20277;-70
2022/12/03 03:06:11;;;;;;;3.33;3.03;;;7.30;90.70;;;;;;4952070;28;20261;-70
2022/12/03 03:08:37;;;;;;;3.60;2.97;;;7.30;90.70;;;;;;4952161;28;20457;-71
2022/12/03 03:11:03;;;;;;;5.13;3.50;;;7.30;90.60;;;;;;4949650;28;20215;-71
2022/12/03 03:13:31;;;;;;;3.70;3.37;;;7.40;90.60;;;;;;4954535;28;20175;-71
2022/12/03 03:15:57;;;;;;;5.00;3.40;;;7.30;90.70;;;;;;4955398;28;20273;-71
2022/12/03 03:18:22;;;;;;;4.60;3.60;;;7.30;90.70;;;;;;4958505;28;20183;-71
2022/12/03 03:20:48;;;;;;;4.07;3.73;;;7.30;90.70;;;;;;4951897;28;20198;-71
2022/12/03 03:23:18;;;;;;;5.27;3.43;;;7.30;90.60;;;;;;4952322;28;20190;-70
2022/12/03 03:25:48;;;;;;;3.70;3.33;;;7.30;90.80;;;;;;4955506;28;20283;-71
2022/12/03 03:28:15;;;;;;;3.40;2.73;;;7.30;90.80;;;;;;4955610;28;20178;-71
2022/12/03 03:30:42;;;;;;;3.20;3.00;;;7.30;90.80;;;;;;4949784;28;20816;-71
2022/12/03 03:33:08;;;;;;;5.33;3.07;;;7.30;90.80;;;;;;4951264;28;20661;-70
2022/12/03 03:35:35;;;;;;;5.03;3.03;;;7.30;90.90;;;;;;4954107;28;20198;-71
2022/12/03 03:38:02;;;;;;;4.90;3.03;;;7.30;90.70;;;;;;4950702;28;20262;-71
2022/12/03 03:40:28;;;;;;;3.07;2.80;;;7.30;90.70;;;;;;4952320;28;20683;-71
2022/12/03 03:42:54;;;;;;;5.03;3.37;;;7.30;90.80;;;;;;4953724;28;20185;-71
2022/12/03 03:45:21;;;;;;;3.27;2.97;;;7.30;90.80;;;;;;4955595;28;20209;-71
2022/12/03 03:47:47;;;;;;;3.07;2.73;;;7.30;90.70;;;;;;4959491;28;20195;-71
2022/12/03 03:50:13;;;;;;;6.70;3.17;;;7.20;90.80;;;;;;4955511;28;20217;-70
2022/12/03 03:52:40;;;;;;;2.63;2.53;;;7.30;90.60;;;;;;4953660;28;20187;-71
2022/12/03 03:55:06;;;;;;;3.90;3.10;;;7.10;90.90;;;;;;4956614;28;20184;-71
2022/12/03 03:57:32;;;;;;;3.27;2.97;;;7.10;91.10;;;;;;4951364;28;20198;-71
2022/12/03 03:59:59;;;;;;;4.70;3.17;;;7.10;91.00;;;;;;4956302;28;20198;-72
2022/12/03 04:02:26;;;;;;;2.93;2.73;;;7.10;90.90;;;;;;4950501;28;20185;-71
2022/12/03 04:04:52;;;;;;;3.80;2.77;;;7.00;91.10;;;;;;4960171;28;20269;-70
2022/12/03 04:07:18;;;;;;;3.63;2.60;;;7.00;91.30;;;;;;4957177;28;20576;-71
2022/12/03 04:09:44;;;;;;;3.17;2.93;;;7.00;91.40;;;;;;4953374;28;20227;-71
2022/12/03 04:14:57;;;;;;;4.20;2.60;;;7.10;91.40;;;;;;4948317;28;20219;-71
2022/12/03 04:17:22;;;;;;;2.43;2.23;;;7.10;91.30;;;;;;4955984;28;20187;-71
2022/12/03 04:19:48;;;;;;;3.20;2.40;;;7.10;91.20;;;;;;4956834;28;20655;-71
2022/12/03 04:30:46;;;;;;;2.60;2.43;;;7.10;91.00;;;;;;4916002;29;20250;-70
2022/12/03 04:35:56;;;;;;;3.57;2.30;;;7.20;90.80;;;;;;4913814;29;20190;-70
2022/12/03 04:38:21;;;;;;;4.70;2.57;;;7.10;90.80;;;;;;4909876;29;20187;-70
2022/12/03 04:40:59;;;;;;;3.20;2.70;;;7.10;90.90;;;;;;4912417;29;20187;-72
2022/12/03 04:43:26;;;;;;;2.93;2.57;;;7.10;90.90;;;;;;4905014;29;20184;-71
2022/12/03 04:45:52;;;;;;;3.00;2.37;;;7.10;90.80;;;;;;4915141;29;20782;-70
2022/12/03 04:48:18;;;;;;;3.27;2.40;;;7.10;90.90;;;;;;4911277;29;20184;-71
2022/12/03 04:50:43;;;;;;;3.43;2.73;;;7.10;91.00;;;;;;4915303;29;21768;-71
2022/12/03 04:53:09;;;;;;;3.17;2.20;;;7.10;91.00;;;;;;4909986;29;20327;-71
2022/12/03 04:55:34;;;;;;;1.83;1.73;;;7.00;91.20;;;;;;4911782;29;20352;-71
2022/12/03 04:58:00;;;;;;;1.70;1.60;;;7.00;91.30;;;;;;4910284;28;20195;-71
2022/12/03 05:00:26;;;;;;;1.90;1.90;;;7.00;91.30;;;;;;4948902;28;20199;-71
2022/12/03 05:02:52;;;;;;;2.33;1.97;;;7.00;91.20;;;;;;4952207;28;20183;-71
2022/12/03 05:05:17;;;;;;;1.87;1.63;;;6.90;91.30;;;;;;4952151;28;20199;-71
2022/12/03 05:07:43;;;;;;;2.23;2.13;;;7.00;91.50;;;;;;4932384;28;20187;-70
2022/12/03 05:10:09;;;;;;;1.57;1.47;;;7.00;91.50;;;;;;4954867;28;20210;-70
2022/12/03 05:12:35;;;;;;;1.67;1.67;;;7.00;91.60;;;;;;4949165;28;20245;-70
2022/12/03 05:15:01;;;;;;;1.87;1.77;;;7.00;91.40;;;;;;4953209;28;20191;-71
2022/12/03 05:17:27;;;;;;;1.80;1.70;;;7.00;91.30;;;;;;4952918;28;20190;-72
2022/12/03 05:22:36;;;;;;;1.37;1.37;;;7.00;91.30;;;;;;4947869;28;20884;-71
2022/12/03 05:25:03;;;;;;;2.30;2.20;;;7.00;91.40;;;;;;4958782;28;20987;-71
2022/12/03 05:27:29;;;;;;;2.07;1.87;;;7.10;91.20;;;;;;4950513;28;20183;-71
2022/12/03 05:29:54;;;;;;;3.00;2.33;;;7.00;91.20;;;;;;4957564;28;20210;-69
2022/12/03 05:32:20;;;;;;;1.97;1.80;;;7.10;91.10;;;;;;4952437;28;20242;-71
2022/12/03 05:34:45;;;;;;;2.53;2.33;;;7.00;91.00;;;;;;4956229;28;20208;-70
2022/12/03 05:37:11;;;;;;;2.20;2.00;;;7.00;91.00;;;;;;4951226;28;20186;-70
2022/12/03 05:39:37;;;;;;;2.03;1.93;;;7.00;91.10;;;;;;4952943;28;20213;-70
2022/12/03 05:44:47;;;;;;;2.50;1.67;;;7.00;91.10;;;;;;4951410;28;20204;-71
2022/12/03 05:47:12;;;;;;;2.63;1.37;;;6.90;91.10;;;;;;4951931;28;20182;-70
2022/12/03 05:49:38;;;;;;;2.10;1.90;;;6.90;91.00;;;;;;4954124;28;20623;-70
2022/12/03 05:52:04;;;;;;;1.30;1.27;;;6.90;91.10;;;;;;4952382;28;20594;-71
2022/12/03 05:54:29;;;;;;;1.93;1.83;;;6.90;91.10;;;;;;4958145;28;20178;-70
2022/12/03 05:56:55;;;;;;;1.67;1.57;;;6.90;91.20;;;;;;4952041;28;20262;-71
2022/12/03 05:59:21;;;;;;;1.40;1.40;;;6.90;91.30;;;;;;4951353;28;20314;-70
2022/12/03 06:01:46;;;;;;;1.70;1.60;;;6.90;91.30;;;;;;4952129;28;20209;-71
2022/12/03 06:04:12;;;;;;;1.63;1.50;;;6.80;91.40;;;;;;4953970;28;20689;-71
2022/12/03 06:06:38;;;;;;;2.90;2.30;;;6.90;91.40;;;;;;4948367;28;20198;-70
2022/12/03 06:09:04;;;;;;;1.73;1.63;;;6.90;91.40;;;;;;4949705;28;20210;-71
2022/12/03 06:11:32;;;;;;;2.00;1.43;;;6.90;91.50;;;;;;4950513;28;20214;-70
2022/12/03 06:13:58;;;;;;;1.90;1.90;;;6.90;91.50;;;;;;4950087;28;20210;-71
2022/12/03 06:16:24;;;;;;;1.70;1.60;;;6.90;91.50;;;;;;4952385;28;20223;-70
2022/12/03 06:18:50;;;;;;;2.10;1.53;;;6.90;91.40;;;;;;4956105;28;20183;-70
2022/12/03 06:21:15;;;;;;;1.40;1.30;;;6.90;91.40;;;;;;4949860;28;20186;-72
2022/12/03 06:23:43;;;;;;;1.37;1.37;;;6.90;91.40;;;;;;4952564;28;20252;-70
2022/12/03 06:26:13;;;;;;;2.97;2.07;;;6.90;91.40;;;;;;4936049;28;20554;-71
2022/12/03 06:28:39;;;;;;;2.70;1.80;;;6.90;91.70;;;;;;4937703;28;20668;-71
2022/12/03 06:31:05;;;;;;;2.20;1.60;;;7.00;91.60;;;;;;4956110;28;21109;-70
2022/12/03 06:33:31;;;;;;;1.50;1.40;;;7.00;91.50;;;;;;4945486;28;20187;-70
2022/12/03 06:35:57;;;;;;;2.13;1.77;;;7.00;91.50;;;;;;4956212;28;20190;-71
2022/12/03 06:38:22;;;;;;;5.10;1.67;;;7.10;91.40;;;;;;4950310;28;20676;-70
2022/12/03 06:40:48;;;;;;;2.13;1.93;;;7.10;91.30;;;;;;4952028;28;20190;-71
2022/12/03 06:43:14;;;;;;;2.40;2.10;;;7.10;91.40;;;;;;4950198;28;20201;-71
2022/12/03 06:45:39;;;;;;;1.63;1.57;;;7.10;91.50;;;;;;4954762;28;20187;-70
2022/12/03 06:48:05;;;;;;;1.53;1.43;;;7.10;91.60;;;;;;4955507;28;20183;-71
2022/12/03 06:50:31;;;;;;;1.57;1.47;;;7.10;91.60;;;;;;4958843;28;20202;-71
2022/12/03 06:52:56;;;;;;;1.70;1.10;;;7.10;91.60;;;;;;4959544;28;20189;-71
2022/12/03 06:55:22;;;;;;;1.90;1.80;;;7.10;91.50;;;;;;4957188;28;20302;-71
2022/12/03 06:57:48;;;;;;;3.23;1.83;;;7.10;91.50;;;;;;4959382;28;20186;-71
2022/12/03 07:00:14;;;;;;;1.57;1.30;;;7.10;91.30;;;;;;4958083;28;20245;-70
2022/12/03 07:02:39;;;;;;;1.30;1.20;;;7.20;91.00;;;;;;4954311;28;20214;-70
2022/12/03 07:05:05;;;;;;;1.87;1.77;;;7.20;91.00;;;;;;4954931;28;20206;-71
2022/12/03 07:07:31;;;;;;;1.57;1.47;;;7.20;91.00;;;;;;4956771;28;20190;-71
2022/12/03 07:09:57;;;;;;;1.80;1.50;;;7.20;91.10;;;;;;4954808;28;20229;-71
2022/12/03 07:12:23;;;;;;;1.50;1.40;;;7.20;91.00;;;;;;4961410;28;20198;-72
2022/12/03 07:14:48;;;;;;;1.50;1.40;;;7.20;91.10;;;;;;4957231;28;20670;-71
2022/12/03 07:17:14;;;;;;;1.77;1.70;;;7.20;91.10;;;;;;4958998;28;20400;-71
2022/12/03 07:19:39;;;;;;;3.20;2.00;;;7.20;91.00;;;;;;4938336;28;20252;-70
2022/12/03 07:22:05;;;;;;;1.70;1.60;;;7.20;91.10;;;;;;4956359;28;20770;-71
2022/12/03 07:24:31;;;;;;;1.77;1.67;;;7.30;91.20;;;;;;4956999;28;20246;-73
2022/12/03 07:26:57;;;;;;;1.67;1.57;;;7.30;91.20;;;;;;4950527;28;20274;-74
2022/12/03 07:29:23;;;;;;;1.93;1.83;;;7.30;91.00;;;;;;4956186;28;20369;-75
2022/12/03 07:31:48;;;;;;;1.67;1.63;;;7.40;91.20;;;;;;4953311;28;20193;-74
2022/12/03 07:34:14;;;;;;;1.77;1.70;;;7.40;91.20;;;;;;4958032;28;20185;-73
2022/12/03 07:36:40;;;;;;;1.87;1.77;;;7.50;90.60;;;;;;4954084;28;20187;-73
2022/12/03 07:39:05;;;;;;;2.23;1.97;;;7.50;90.60;;;;;;4952970;28;20614;-74
2022/12/03 07:41:31;;;;;;;1.33;1.33;;;7.50;90.60;;;;;;4955177;28;20221;-75
2022/12/03 07:43:57;;;;;;;1.63;1.50;;;7.50;90.10;;;;;;4958740;28;20185;-75
2022/12/03 07:46:22;;;;;;;1.67;1.57;;;7.50;89.80;;;;;;4955152;28;20190;-74
2022/12/03 07:48:48;;;;;;;1.23;1.20;;;7.50;89.30;;;;;;4953410;28;20257;-74
2022/12/03 07:51:14;;;;;;;1.20;1.10;;;7.50;89.30;;;;;;4953343;28;20238;-73
2022/12/03 07:53:39;;;;;;;1.50;1.50;;;7.40;89.40;;;;;;4959472;28;20653;-74
2022/12/03 07:56:06;;;;;;;4.43;1.40;;;7.40;89.30;;;;;;4956704;28;20183;-73
2022/12/03 07:58:31;;;;;;;1.33;1.33;;;7.40;89.20;;;;;;4955437;28;20183;-74
2022/12/03 08:00:57;;;;;;;1.90;1.70;;;7.40;89.30;;;;;;4957155;28;20195;-75
2022/12/03 08:03:23;;;;;;;1.93;1.53;;;7.40;89.30;;;;;;4953186;28;20186;-75
2022/12/03 08:05:48;;;;;;;1.60;1.50;;;7.30;89.70;;;;;;4957762;28;20397;-74
2022/12/03 08:08:14;;;;;;;1.20;1.20;;;7.40;89.60;;;;;;4953376;28;20187;-74
2022/12/03 08:10:40;;;;;;;1.80;1.70;;;7.40;89.40;;;;;;4958774;28;20210;-74
2022/12/03 08:13:12;;;;;;;1.40;1.30;;;7.50;89.40;;;;;;4954280;28;20219;-75
2022/12/03 08:15:37;;;;;;;1.70;1.20;;;7.50;89.30;;;;;;4956201;28;20201;-75
2022/12/03 08:18:15;;;;;;;1.70;1.60;;;7.50;89.40;;;;;;4950010;28;20179;-75
2022/12/03 08:20:42;;;;;;;1.53;1.20;;;7.50;89.30;;;;;;4954679;28;20190;-75
2022/12/03 08:23:17;;;;;;;1.40;1.30;;;7.60;89.10;;;;;;4956790;28;20246;-74
2022/12/03 08:25:44;;;;;;;1.47;1.40;;;7.50;88.60;;;;;;4950518;28;20197;-74
2022/12/03 08:28:17;;;;;;;1.63;1.53;;;7.50;89.30;;;;;;4953469;28;20180;-75
2022/12/03 08:30:46;;;;;;;3.93;2.20;;;7.50;89.70;;;;;;4952693;28;21299;-74
2022/12/03 08:33:24;;;;;;;1.30;1.30;;;7.60;89.00;;;;;;4951405;28;20716;-73
2022/12/03 08:35:50;;;;;;;1.30;1.03;;;7.70;88.80;;;;;;4952622;28;20346;-74
2022/12/03 08:38:20;;;;;;;1.27;1.20;;;7.70;89.20;;;;;;4951970;28;20293;-74
2022/12/03 08:40:48;;;;;;;1.57;1.50;;;7.80;88.90;;;;;;4951744;28;20338;-74
2022/12/03 08:43:23;;;;;;;1.80;1.70;;;7.80;88.50;;;;;;4952829;28;20183;-74
2022/12/03 08:45:53;;;;;;;1.93;1.83;;;7.80;88.20;;;;;;4954349;28;20187;-74
2022/12/03 08:48:32;;;;;;;3.13;2.60;;;7.80;88.00;;;;;;4958686;28;20179;-74
2022/12/03 08:51:20;;;;;;;2.10;2.00;;;7.90;88.10;;;;;;4948065;28;20280;-75
2022/12/03 08:53:51;;;;;;;1.87;1.27;;;7.90;88.40;;;;;;4951365;28;20266;-75
2022/12/03 08:56:28;;;;;;;1.87;1.77;;;7.90;89.00;;;;;;4950025;28;20209;-75
2022/12/03 08:59:12;;;;;;;2.03;1.90;;;7.90;88.20;;;;;;4949713;28;20179;-74
2022/12/03 09:01:41;;;;;;;2.20;1.67;;;8.00;87.90;;;;;;4935032;28;20191;-74
2022/12/03 09:04:45;;;;;;;1.90;1.80;;;8.00;87.90;;;;;;4953263;28;20179;-75
2022/12/03 09:07:11;;;;;;;1.80;1.63;;;8.00;88.10;;;;;;4956239;28;20194;-75
2022/12/03 09:09:37;;;;;;;2.00;1.90;;;8.10;88.40;;;;;;4955337;28;20276;-75
2022/12/03 09:12:03;;;;;;;3.00;2.27;;;8.10;88.50;;;;;;4951137;28;20183;-75
2022/12/03 09:14:44;;;;;;;1.43;1.43;;;8.10;88.60;;;;;;4896724;29;20208;-72
2022/12/03 09:17:10;;;;;;;1.80;1.70;;;8.20;89.20;;;;;;4895980;29;20192;-79
2022/12/03 09:19:36;;;;;;;1.87;1.77;;;8.30;89.00;;;;;;4896719;29;20323;-76
2022/12/03 09:22:01;;;;;;;1.73;1.63;;;8.30;88.90;;;;;;4890287;29;20573;-79
2022/12/03 09:24:27;;;;;;;1.93;1.53;;;8.40;89.20;;;;;;4894896;29;20233;-76
2022/12/03 09:26:52;;;;;;;1.88;1.77;;;8.50;89.10;;;;;;4896722;29;20197;-75
2022/12/03 09:29:18;;;;;;;1.90;1.80;;;8.60;88.60;;;;;;4891224;29;20199;-80
2022/12/03 09:31:44;;;;;;;2.13;1.92;;;8.70;88.60;;;;;;4892196;29;20197;-78
2022/12/03 09:34:10;;;;;;;2.22;2.13;;;8.70;88.70;;;;;;4897108;29;20695;-79
2022/12/03 09:36:35;;;;;;;2.10;1.87;;;8.80;88.80;;;;;;4891532;29;20752;-79
2022/12/03 09:39:01;;;;;;;2.65;2.33;;;8.80;88.70;;;;;;4890388;29;20277;-83
2022/12/03 09:41:27;;;;;;;1.83;1.60;;;8.90;88.80;;;;;;4891158;29;20843;-76
2022/12/03 09:43:53;;;;;;;2.92;1.70;;;8.90;88.70;;;;;;4893633;29;20241;-77
2022/12/03 09:46:21;;;;;;;5.38;2.28;;;9.00;87.60;;;;;;4888832;29;20193;-76
2022/12/03 09:48:47;;;;;;;3.58;2.50;;;9.00;87.20;;;;;;4894890;29;20208;-78
2022/12/03 09:51:13;;;;;;;2.20;2.10;;;9.00;87.60;;;;;;4901454;28;20286;-77
2022/12/03 09:53:39;;;;;;;2.65;2.45;;;9.00;87.40;;;;;;4947976;28;20183;-76
2022/12/03 09:56:08;;;;;;;1.77;1.70;;;9.00;87.20;;;;;;4951903;28;20198;-77
2022/12/03 09:58:33;;;;;;;2.10;2.00;;;9.10;86.50;;;;;;4957996;28;20187;-78
2022/12/03 10:00:59;;;;;;;2.38;2.10;;;9.10;86.80;;;;;;4951405;28;20576;-75
2022/12/03 10:03:29;;;;;;;3.15;2.30;;;9.00;86.30;;;;;;4958116;28;20688;-76
2022/12/03 10:05:55;;;;;;;1.80;1.70;;;9.00;86.60;;;;;;4944959;28;21022;-76
2022/12/03 10:08:22;;;;;;;3.05;2.17;;;9.00;86.60;;;;;;4949469;28;20231;-76
2022/12/03 10:10:55;;;;;;;3.63;2.25;;;9.00;86.00;;;;;;4948674;28;20218;-76
2022/12/03 10:13:26;;;;;;;2.08;1.98;;;9.00;85.90;;;;;;4949279;28;20873;-78
2022/12/03 10:15:54;;;;;;;2.58;2.38;;;9.00;86.10;;;;;;4952398;28;20187;-77
2022/12/03 10:18:22;;;;;;;2.80;2.60;;;9.00;86.80;;;;;;4951539;28;20190;-77
2022/12/03 10:20:49;;;;;;;3.17;2.88;;;9.00;86.60;;;;;;4948283;28;20183;-78
2022/12/03 10:23:33;;;;;;;3.30;2.13;;;8.90;86.00;;;;;;4953060;28;20262;-77
2022/12/03 10:26:02;;;;;;;2.75;2.55;;;8.90;86.10;;;;;;4948132;28;20278;-78
2022/12/03 10:28:31;;;;;;;1.85;1.75;;;9.00;86.50;;;;;;4930729;28;20179;-76
2022/12/03 10:30:58;;;;;;;2.85;1.98;;;9.10;86.70;;;;;;4957005;28;20210;-76
2022/12/03 10:33:33;;;;;;;1.85;1.85;;;9.10;85.90;;;;;;4943164;28;20182;-74
2022/12/03 10:36:16;;;;;;;3.22;2.97;;;9.10;86.20;;;;;;4946181;28;20294;-76
2022/12/03 10:38:43;;;;;;;2.40;1.92;;;9.10;85.80;;;;;;4949493;28;20194;-76
2022/12/03 10:41:26;;;;;;;3.00;2.80;;;9.00;84.80;;;;;;4949405;28;20282;-75
2022/12/03 10:43:52;;;;;;;2.50;2.30;;;9.00;85.60;;;;;;4949852;28;20190;-76
2022/12/03 10:46:22;;;;;;;4.68;2.67;;;9.00;85.00;;;;;;4946839;28;20186;-76
2022/12/03 10:49:24;;;;;;;2.58;2.38;;;8.90;85.40;;;;;;4950822;28;20179;-75
2022/12/03 10:51:50;;;;;;;2.78;2.58;;;9.00;85.20;;;;;;4953757;28;20265;-76
2022/12/03 10:54:20;;;;;;;2.70;2.50;;;9.00;85.00;;;;;;4944757;28;20187;-75
2022/12/03 10:56:48;;;;;;;2.05;1.92;;;8.90;85.30;;;;;;4951288;28;20268;-75
2022/12/03 10:59:34;;;;;;;2.67;2.47;;;8.90;85.50;;;;;;4946118;28;20190;-75
2022/12/03 11:02:02;;;;;;;2.05;1.95;;;8.90;85.30;;;;;;4951959;28;20190;-76
2022/12/03 11:04:32;;;;;;;1.83;1.73;;;8.90;86.10;;;;;;4928996;28;20187;-75
2022/12/03 11:07:00;;;;;;;2.70;2.47;;;8.90;85.70;;;;;;4951548;28;20209;-75
2022/12/03 11:09:30;;;;;;;2.80;2.60;;;9.00;85.90;;;;;;4949706;28;20184;-75
2022/12/03 11:12:03;;;;;;;2.43;2.33;;;9.10;85.70;;;;;;4954904;28;20579;-75
2022/12/03 11:14:47;;;;;;;2.60;2.30;;;9.10;86.20;;;;;;4950950;28;20248;-74
2022/12/03 11:17:45;;;;;;;2.83;2.50;;;9.20;85.40;;;;;;4946350;28;20194;-75
2022/12/03 11:20:30;;;;;;;2.50;2.30;;;9.30;84.80;;;;;;4951670;28;20198;-75
2022/12/03 11:22:57;;;;;;;2.40;2.30;;;9.20;85.10;;;;;;4944345;28;20191;-75
2022/12/03 11:25:25;;;;;;;2.73;2.57;;;9.20;84.80;;;;;;4950066;28;20179;-75
2022/12/03 11:28:12;;;;;;;2.15;2.05;;;9.20;85.00;;;;;;4949222;28;20528;-75
2022/12/03 11:30:50;;;;;;;6.22;2.80;;;9.20;85.40;;;;;;4948568;28;21037;-74
2022/12/03 11:33:23;;;;;;;3.03;2.83;;;9.20;85.80;;;;;;4953838;28;20186;-76
2022/12/03 11:36:04;;;;;;;2.92;2.72;;;9.30;85.30;;;;;;4952452;28;20203;-75
2022/12/03 11:38:48;;;;;;;2.60;2.40;;;9.30;85.40;;;;;;4950673;28;20329;-76
2022/12/03 11:41:27;;;;;;;3.33;2.85;;;9.30;85.10;;;;;;4946672;28;20187;-76
2022/12/03 11:43:54;;;;;;;2.67;2.03;;;9.20;84.50;;;;;;4953767;28;20187;-75
2022/12/03 11:46:44;;;;;;;2.25;2.13;;;9.10;84.80;;;;;;4954012;28;20193;-76
2022/12/03 11:49:30;;;;;;;3.25;2.58;;;9.10;84.60;;;;;;4955878;28;20248;-75
2022/12/03 11:51:59;;;;;;;2.63;2.30;;;9.10;85.00;;;;;;4953619;28;20199;-75
2022/12/03 11:54:25;;;;;;;3.35;3.00;;;9.00;85.40;;;;;;4953423;28;20214;-75
2022/12/03 11:56:52;;;;;;;2.60;2.40;;;9.00;85.40;;;;;;4954657;28;20975;-76
2022/12/03 11:59:18;;;;;;;4.00;2.95;;;9.00;85.00;;;;;;4951262;28;20392;-75
2022/12/03 12:01:44;;;;;;;3.40;3.20;;;9.00;84.80;;;;;;4956909;28;20183;-75
2022/12/03 12:04:36;;;;;;;2.58;2.38;;;9.00;85.20;;;;;;4954428;28;20265;-75
2022/12/03 12:07:02;;;;;;;3.03;2.90;;;9.00;85.00;;;;;;4953329;28;20195;-75
2022/12/03 12:09:51;;;;;;;2.90;2.70;;;9.00;85.60;;;;;;4954285;28;20233;-75
2022/12/03 12:12:30;;;;;;;3.72;3.33;;;9.00;85.90;;;;;;4953011;28;20561;-76
2022/12/03 12:14:57;;;;;;;2.72;2.53;;;9.00;85.80;;;;;;4949908;28;20197;-74
2022/12/03 12:17:35;;;;;;;3.28;2.97;;;9.00;85.60;;;;;;4954944;28;20190;-75
2022/12/03 12:20:22;;;;;;;2.40;2.20;;;9.10;85.60;;;;;;4952281;28;20216;-74
2022/12/03 12:22:48;;;;;;;2.60;2.47;;;9.10;85.70;;;;;;4957454;28;20678;-75
2022/12/03 12:25:29;;;;;;;2.67;2.50;;;9.20;85.80;;;;;;4952306;28;20190;-75
2022/12/03 12:27:56;;;;;;;2.77;2.53;;;9.20;85.40;;;;;;4950096;28;20179;-75
2022/12/03 12:30:22;;;;;;;3.63;2.80;;;9.20;85.40;;;;;;4954497;28;20214;-75
2022/12/03 12:32:56;;;;;;;2.55;2.35;;;9.10;85.50;;;;;;4952970;28;20179;-75
2022/12/03 12:35:26;;;;;;;3.85;2.88;;;9.10;85.50;;;;;;4952558;28;20183;-75
2022/12/03 12:38:06;;;;;;;3.05;2.85;;;9.10;85.20;;;;;;4953901;28;20250;-74
2022/12/03 12:40:33;;;;;;;2.97;2.77;;;9.10;85.10;;;;;;4953646;28;20179;-75
2022/12/03 12:43:01;;;;;;;3.47;3.17;;;9.10;85.60;;;;;;4951740;28;20229;-76
2022/12/03 12:45:34;;;;;;;3.55;3.20;;;9.10;85.70;;;;;;4949855;28;20186;-76
2022/12/03 12:48:11;;;;;;;3.63;3.33;;;9.10;85.80;;;;;;4950245;28;20199;-76
2022/12/03 12:50:38;;;;;;;5.50;2.80;;;9.10;85.80;;;;;;4955493;28;20221;-76
2022/12/03 12:53:10;;;;;;;5.32;3.38;;;9.10;85.90;;;;;;4957454;28;20205;-75
2022/12/03 12:55:39;;;;;;;2.67;2.53;;;9.10;86.10;;;;;;4949527;28;20180;-74
2022/12/03 12:58:15;;;;;;;4.00;3.15;;;9.10;86.20;;;;;;4950360;28;20191;-74
2022/12/03 13:00:41;;;;;;;3.38;3.05;;;9.10;86.00;;;;;;4953431;28;21038;-75
2022/12/03 13:03:07;;;;;;;5.72;3.30;;;9.20;86.20;;;;;;4950611;28;20214;-76
2022/12/03 13:05:40;;;;;;;4.07;3.63;;;9.20;86.20;;;;;;4952596;28;20590;-77
2022/12/03 13:08:19;;;;;;;5.30;3.05;;;9.20;86.10;;;;;;4949832;28;20387;-77
2022/12/03 13:10:46;;;;;;;5.22;4.50;;;9.30;86.10;;;;;;4949686;28;20675;-76
2022/12/03 13:13:19;;;;;;;4.80;4.07;;;9.30;86.00;;;;;;4954204;28;20781;-78
2022/12/03 13:16:01;;;;;;;3.92;3.63;;;9.20;86.10;;;;;;4951031;28;20839;-77
2022/12/03 13:18:32;;;;;;;4.97;3.33;;;9.20;86.10;;;;;;4949197;28;20680;-77
2022/12/03 13:21:05;;;;;;;4.97;3.85;;;9.10;86.40;;;;;;4946474;28;20226;-77
2022/12/03 13:23:33;;;;;;;4.38;3.65;;;9.00;86.50;;;;;;4947130;28;20191;-77
2022/12/03 13:26:11;;;;;;;6.60;3.65;;;9.00;86.70;;;;;;4930398;28;20588;-76
2022/12/03 13:28:39;;;;;;;5.05;3.28;;;9.00;86.60;;;;;;4949547;28;20252;-78